createdAt,value
2017-11-17T00:00:06.828Z,1.5
2017-11-17T00:01:14.396Z,1.5
2017-11-17T00:02:19.604Z,1.5
2017-11-17T00:03:22.443Z,1.5
2017-11-17T00:04:24.951Z,1.6
2017-11-17T00:05:27.552Z,1.5
2017-11-17T00:06:30.070Z,1.5
2017-11-17T00:07:32.549Z,1.5
2017-11-17T00:08:35.646Z,1.6
2017-11-17T00:09:38.595Z,1.5
2017-11-17T00:10:41.420Z,1.5
2017-11-17T00:11:43.917Z,1.5
2017-11-17T00:12:46.721Z,1.5
2017-11-17T00:13:49.207Z,1.5
2017-11-17T00:14:51.731Z,1.5
2017-11-17T00:15:54.226Z,1.5
2017-11-17T00:16:56.736Z,1.5
2017-11-17T00:17:59.233Z,1.5
2017-11-17T00:19:01.729Z,1.4
2017-11-17T00:20:04.223Z,1.5
2017-11-17T00:21:06.721Z,1.5
2017-11-17T00:22:09.217Z,1.4
2017-11-17T00:23:12.039Z,1.5
2017-11-17T00:24:14.525Z,1.5
2017-11-17T00:25:17.019Z,1.4
2017-11-17T00:26:19.820Z,1.5
2017-11-17T00:27:22.320Z,1.5
2017-11-17T00:28:24.806Z,1.4
2017-11-17T00:29:27.305Z,1.4
2017-11-17T00:30:29.809Z,1.4
2017-11-17T00:31:32.305Z,1.4
2017-11-17T00:32:35.115Z,1.4
2017-11-17T00:33:38.226Z,1.4
2017-11-17T00:34:41.019Z,1.4
2017-11-17T00:35:43.804Z,1.4
2017-11-17T00:36:46.302Z,1.4
2017-11-17T00:37:48.826Z,1.4
2017-11-17T00:38:51.328Z,1.4
2017-11-17T00:39:54.110Z,1.3
2017-11-17T00:40:56.617Z,1.3
2017-11-17T00:41:59.117Z,1.4
2017-11-17T00:43:01.620Z,1.3
2017-11-17T00:44:04.753Z,1.3
2017-11-17T00:45:07.228Z,1.4
2017-11-17T00:46:09.737Z,1.4
2017-11-17T00:47:12.234Z,1.3
2017-11-17T00:48:14.737Z,1.3
2017-11-17T00:49:17.248Z,1.3
2017-11-17T00:50:19.738Z,1.3
2017-11-17T00:51:22.233Z,1.4
2017-11-17T00:52:24.749Z,1.4
2017-11-17T00:53:27.235Z,1.4
2017-11-17T00:54:29.730Z,1.3
2017-11-17T00:55:32.235Z,1.3
2017-11-17T00:56:35.033Z,1.2
2017-11-17T00:57:37.539Z,1.3
2017-11-17T00:58:40.041Z,1.3
2017-11-17T00:59:42.542Z,1.3
2017-11-17T01:00:45.027Z,1.3
2017-11-17T01:01:47.832Z,1.2
2017-11-17T01:02:50.330Z,1.3
2017-11-17T01:03:52.821Z,1.3
2017-11-17T01:04:55.317Z,1.3
2017-11-17T01:05:57.819Z,1.3
2017-11-17T01:07:00.313Z,1.2
2017-11-17T01:08:02.815Z,1.3
2017-11-17T01:09:05.305Z,1.3
2017-11-17T01:10:08.101Z,1.2
2017-11-17T01:11:10.917Z,1.2
2017-11-17T01:12:13.409Z,1.2
2017-11-17T01:13:16.217Z,1.3
2017-11-17T01:14:18.718Z,1.2
2017-11-17T01:15:21.216Z,1.3
2017-11-17T01:16:23.733Z,1.2
2017-11-17T01:17:26.232Z,1.2
2017-11-17T01:18:29.016Z,1.2
2017-11-17T01:19:31.520Z,1.2
2017-11-17T01:20:34.016Z,1.3
2017-11-17T01:21:36.516Z,1.3
2017-11-17T01:22:39.321Z,1.3
2017-11-17T01:23:42.100Z,1.3
2017-11-17T01:24:44.601Z,1.3
2017-11-17T01:25:47.414Z,1.2
2017-11-17T01:26:49.916Z,1.3
2017-11-17T01:27:52.409Z,1.2
2017-11-17T01:28:55.219Z,1.2
2017-11-17T01:29:57.718Z,1.2
2017-11-17T01:31:00.211Z,1.2
2017-11-17T01:32:02.710Z,1.2
2017-11-17T01:33:05.213Z,1.2
2017-11-17T01:34:08.010Z,1.2
2017-11-17T01:35:10.510Z,1.2
2017-11-17T01:36:12.997Z,1.2
2017-11-17T01:37:15.508Z,1.2
2017-11-17T01:38:17.997Z,1.3
2017-11-17T01:39:20.499Z,1.2
2017-11-17T01:40:23.002Z,1.2
2017-11-17T01:41:25.493Z,1.2
2017-11-17T01:42:27.993Z,1.3
2017-11-17T01:43:30.503Z,1.2
2017-11-17T01:44:32.984Z,1.3
2017-11-17T01:45:35.492Z,1.2
2017-11-17T01:46:37.995Z,1.2
2017-11-17T01:47:40.500Z,1.2
2017-11-17T01:48:42.990Z,1.3
2017-11-17T01:49:45.775Z,1.2
2017-11-17T01:50:48.271Z,1.3
2017-11-17T01:51:50.786Z,1.2
2017-11-17T01:52:53.272Z,1.2
2017-11-17T01:53:55.778Z,1.2
2017-11-17T01:54:58.271Z,1.2
2017-11-17T01:56:00.778Z,1.2
2017-11-17T01:57:03.263Z,1.2
2017-11-17T01:58:05.754Z,1.2
2017-11-17T01:59:08.240Z,1.2
2017-11-17T02:00:10.744Z,1.2
2017-11-17T02:01:13.238Z,1.2
2017-11-17T02:02:15.742Z,1.2
2017-11-17T02:03:18.259Z,1.2
2017-11-17T02:04:20.750Z,1.2
2017-11-17T02:05:23.254Z,1.2
2017-11-17T02:06:26.043Z,1.2
2017-11-17T02:07:28.545Z,1.2
2017-11-17T02:08:31.326Z,1.2
2017-11-17T02:09:33.825Z,1.2
2017-11-17T02:10:36.315Z,1.2
2017-11-17T02:11:38.814Z,1.2
2017-11-17T02:12:41.321Z,1.2
2017-11-17T02:13:43.818Z,1.2
2017-11-17T02:14:46.316Z,1.2
2017-11-17T02:15:48.820Z,1.2
2017-11-17T02:16:51.310Z,1.2
2017-11-17T02:17:53.820Z,1.2
2017-11-17T02:18:56.901Z,1.2
2017-11-17T02:19:59.394Z,1.2
2017-11-17T02:21:01.894Z,1.2
2017-11-17T02:22:04.397Z,1.2
2017-11-17T02:23:06.894Z,1.2
2017-11-17T02:24:09.399Z,1.2
2017-11-17T02:25:11.883Z,1.2
2017-11-17T02:26:14.393Z,1.2
2017-11-17T02:27:16.882Z,1.2
2017-11-17T02:28:19.382Z,1.2
2017-11-17T02:29:21.884Z,1.2
2017-11-17T02:30:24.382Z,1.2
2017-11-17T02:31:26.877Z,1.2
2017-11-17T02:32:29.374Z,1.2
2017-11-17T02:33:32.167Z,1.2
2017-11-17T02:34:34.684Z,1.2
2017-11-17T02:35:37.191Z,1.2
2017-11-17T02:36:39.667Z,1.2
2017-11-17T02:37:42.164Z,1.2
2017-11-17T02:38:44.951Z,1.2
2017-11-17T02:39:47.450Z,1.2
2017-11-17T02:40:49.957Z,1.2
2017-11-17T02:41:52.437Z,1.2
2017-11-17T02:42:55.240Z,1.2
2017-11-17T02:43:58.058Z,1.2
2017-11-17T02:45:00.540Z,1.2
2017-11-17T02:46:03.042Z,1.1
2017-11-17T02:47:05.537Z,1.2
2017-11-17T02:48:08.030Z,1.2
2017-11-17T02:49:10.539Z,1.2
2017-11-17T02:50:13.039Z,1.1
2017-11-17T02:51:15.529Z,1.1
2017-11-17T02:52:18.037Z,1.2
2017-11-17T02:53:20.534Z,1.2
2017-11-17T02:54:23.025Z,1.1
2017-11-17T02:55:25.527Z,1.2
2017-11-17T02:56:28.605Z,1.2
2017-11-17T02:57:31.097Z,1.2
2017-11-17T02:58:33.612Z,1.2
2017-11-17T02:59:36.422Z,1.1
2017-11-17T03:00:38.912Z,1.1
2017-11-17T03:01:41.404Z,1.2
2017-11-17T03:02:43.899Z,1.1
2017-11-17T03:03:46.399Z,1.2
2017-11-17T03:04:49.178Z,1.2
2017-11-17T03:05:51.682Z,1.1
2017-11-17T03:06:54.175Z,1.1
2017-11-17T03:07:56.681Z,1.1
2017-11-17T03:08:59.180Z,1.1
2017-11-17T03:10:02.260Z,1.2
2017-11-17T03:11:04.765Z,1.1
2017-11-17T03:12:07.566Z,1.2
2017-11-17T03:13:10.055Z,1.2
2017-11-17T03:14:12.553Z,1.1
2017-11-17T03:15:15.041Z,1.2
2017-11-17T03:16:17.831Z,1.1
2017-11-17T03:17:20.333Z,1.1
2017-11-17T03:18:22.833Z,1.1
2017-11-17T03:19:25.320Z,1.2
2017-11-17T03:20:27.831Z,1.2
2017-11-17T03:21:30.307Z,1.1
2017-11-17T03:22:32.820Z,1.1
2017-11-17T03:23:35.311Z,1.2
2017-11-17T03:24:37.797Z,1.2
2017-11-17T03:25:40.298Z,1.1
2017-11-17T03:26:43.094Z,1.1
2017-11-17T03:27:45.894Z,1.1
2017-11-17T03:28:48.401Z,1.1
2017-11-17T03:29:50.891Z,1.2
2017-11-17T03:30:53.408Z,1.1
2017-11-17T03:31:55.890Z,1.1
2017-11-17T03:32:58.386Z,1.1
2017-11-17T03:34:01.192Z,1.1
2017-11-17T03:35:03.683Z,1.2
2017-11-17T03:36:06.184Z,1.1
2017-11-17T03:37:08.677Z,1.2
2017-11-17T03:38:11.172Z,1.1
2017-11-17T03:39:13.678Z,1.1
2017-11-17T03:40:16.175Z,1.1
2017-11-17T03:41:18.664Z,1.1
2017-11-17T03:42:21.148Z,1.1
2017-11-17T03:43:24.234Z,1.1
2017-11-17T03:44:26.731Z,1.1
2017-11-17T03:45:29.231Z,1.1
2017-11-17T03:46:31.717Z,1.1
2017-11-17T03:47:34.209Z,1.1
2017-11-17T03:48:36.707Z,1.1
2017-11-17T03:49:39.194Z,1.1
2017-11-17T03:50:41.687Z,1.1
2017-11-17T03:51:44.189Z,1.1
2017-11-17T03:52:46.680Z,1.1
2017-11-17T03:53:49.188Z,1.1
2017-11-17T03:54:51.692Z,1.1
2017-11-17T03:55:54.177Z,1.1
2017-11-17T03:56:56.679Z,1.1
2017-11-17T03:57:59.180Z,1.2
2017-11-17T03:59:01.973Z,1.1
2017-11-17T04:00:04.474Z,1.1
2017-11-17T04:01:06.965Z,1.1
2017-11-17T04:02:09.749Z,1.1
2017-11-17T04:03:12.484Z,1.2
2017-11-17T04:04:14.977Z,1.1
2017-11-17T04:05:17.463Z,1.1
2017-11-17T04:06:19.969Z,1.1
2017-11-17T04:07:22.462Z,1.1
2017-11-17T04:08:24.957Z,1.1
2017-11-17T04:09:27.459Z,1.1
2017-11-17T04:10:29.948Z,1.1
2017-11-17T04:11:32.447Z,1.1
2017-11-17T04:12:34.956Z,1.1
2017-11-17T04:13:37.438Z,1.1
2017-11-17T04:14:39.933Z,1.1
2017-11-17T04:15:42.434Z,1.1
2017-11-17T04:16:44.917Z,1.1
2017-11-17T04:17:47.411Z,1.1
2017-11-17T04:18:49.906Z,1.3
2017-11-17T04:19:53.489Z,1.1
2017-11-17T04:20:55.982Z,1.1
2017-11-17T04:21:58.486Z,1.1
2017-11-17T04:23:00.974Z,1.1
2017-11-17T04:24:03.478Z,1.1
2017-11-17T04:25:06.256Z,1.1
2017-11-17T04:26:08.749Z,1.1
2017-11-17T04:27:11.247Z,1.1
2017-11-17T04:28:13.753Z,1.1
2017-11-17T04:29:16.228Z,1.1
2017-11-17T04:30:18.731Z,1.1
2017-11-17T04:31:21.223Z,1.1
2017-11-17T04:32:23.728Z,1.1
2017-11-17T04:33:26.217Z,1.1
2017-11-17T04:34:28.716Z,1.1
2017-11-17T04:35:31.209Z,1.1
2017-11-17T04:36:33.713Z,1.1
2017-11-17T04:37:36.197Z,1.1
2017-11-17T04:38:38.688Z,1.1
2017-11-17T04:39:41.480Z,1.1
2017-11-17T04:40:44.290Z,1.1
2017-11-17T04:41:47.084Z,1
2017-11-17T04:42:49.577Z,1.1
2017-11-17T04:43:52.076Z,1.1
2017-11-17T04:44:54.573Z,1.1
2017-11-17T04:45:57.384Z,1.1
2017-11-17T04:46:59.891Z,1.1
2017-11-17T04:48:02.659Z,1.1
2017-11-17T04:49:05.159Z,1
2017-11-17T04:50:07.660Z,1
2017-11-17T04:51:10.158Z,1.1
2017-11-17T04:52:12.644Z,1
2017-11-17T04:53:15.136Z,1.1
2017-11-17T04:54:17.626Z,1.1
2017-11-17T04:55:20.136Z,1.1
2017-11-17T04:56:22.935Z,1
2017-11-17T04:57:25.418Z,1.1
2017-11-17T04:58:28.214Z,1.1
2017-11-17T04:59:30.717Z,1.1
2017-11-17T05:00:33.205Z,1
2017-11-17T05:01:36.015Z,1.1
2017-11-17T05:02:38.510Z,1.1
2017-11-17T05:03:41.006Z,1.1
2017-11-17T05:04:43.493Z,1
2017-11-17T05:05:46.283Z,1.1
2017-11-17T05:06:48.780Z,1.1
2017-11-17T05:07:51.276Z,1.1
2017-11-17T05:08:53.766Z,1.1
2017-11-17T05:09:56.552Z,1.1
2017-11-17T05:10:59.047Z,1.1
2017-11-17T05:12:01.567Z,1.1
2017-11-17T05:13:04.354Z,1.1
2017-11-17T05:14:06.865Z,1.1
2017-11-17T05:15:09.354Z,1
2017-11-17T05:16:11.847Z,1.1
2017-11-17T05:17:14.345Z,1
2017-11-17T05:18:16.847Z,1.1
2017-11-17T05:19:19.787Z,1
2017-11-17T05:20:22.293Z,1
2017-11-17T05:21:25.073Z,1.1
2017-11-17T05:22:27.576Z,1.1
2017-11-17T05:23:30.068Z,1.1
2017-11-17T05:24:32.556Z,1
2017-11-17T05:25:35.363Z,1
2017-11-17T05:26:37.857Z,1
2017-11-17T05:27:40.357Z,1
2017-11-17T05:28:42.838Z,1.1
2017-11-17T05:29:45.339Z,1.1
2017-11-17T05:30:47.835Z,1
2017-11-17T05:31:50.623Z,1.1
2017-11-17T05:32:53.113Z,1.1
2017-11-17T05:33:55.608Z,1.1
2017-11-17T05:34:58.089Z,1
2017-11-17T05:36:00.603Z,1
2017-11-17T05:37:03.393Z,1
2017-11-17T05:38:06.184Z,1.1
2017-11-17T05:39:08.679Z,1
2017-11-17T05:40:11.168Z,1.1
2017-11-17T05:41:13.670Z,1
2017-11-17T05:42:16.162Z,1
2017-11-17T05:43:18.953Z,1.1
2017-11-17T05:44:21.447Z,1.1
2017-11-17T05:45:23.962Z,1
2017-11-17T05:46:26.457Z,1
2017-11-17T05:47:28.945Z,1.1
2017-11-17T05:48:31.450Z,1
2017-11-17T05:49:33.943Z,1.1
2017-11-17T05:50:36.441Z,1
2017-11-17T05:51:38.936Z,1.1
2017-11-17T05:52:41.426Z,1.1
2017-11-17T05:53:43.920Z,1
2017-11-17T05:54:46.715Z,1.1
2017-11-17T05:55:49.208Z,1.1
2017-11-17T05:56:51.700Z,1.1
2017-11-17T05:57:54.205Z,1.1
2017-11-17T05:58:56.701Z,1
2017-11-17T05:59:59.194Z,1
2017-11-17T06:01:01.696Z,1
2017-11-17T06:02:04.467Z,1.1
2017-11-17T06:03:06.966Z,1.1
2017-11-17T06:04:09.772Z,1.1
2017-11-17T06:05:12.261Z,1
2017-11-17T06:06:14.764Z,1.1
2017-11-17T06:07:17.253Z,1.1
2017-11-17T06:08:19.743Z,1
2017-11-17T06:09:22.249Z,1.1
2017-11-17T06:10:24.741Z,1
2017-11-17T06:11:27.226Z,1
2017-11-17T06:12:29.727Z,1.1
2017-11-17T06:13:32.210Z,1
2017-11-17T06:14:34.707Z,1
2017-11-17T06:15:37.205Z,1
2017-11-17T06:16:39.689Z,1
2017-11-17T06:17:42.178Z,1
2017-11-17T06:18:44.681Z,1
2017-11-17T06:19:47.168Z,1.1
2017-11-17T06:20:49.666Z,1
2017-11-17T06:21:52.158Z,1.1
2017-11-17T06:22:54.647Z,1
2017-11-17T06:23:57.430Z,1.1
2017-11-17T06:24:59.925Z,1.1
2017-11-17T06:26:02.428Z,1.1
2017-11-17T06:27:05.207Z,1.1
2017-11-17T06:28:07.704Z,1
2017-11-17T06:29:10.841Z,1
2017-11-17T06:30:13.645Z,1.1
2017-11-17T06:31:16.139Z,1
2017-11-17T06:32:18.641Z,1
2017-11-17T06:33:21.414Z,1
2017-11-17T06:34:23.914Z,1
2017-11-17T06:35:26.562Z,1
2017-11-17T06:36:29.055Z,1
2017-11-17T06:37:31.560Z,1
2017-11-17T06:38:34.050Z,1
2017-11-17T06:39:36.539Z,1
2017-11-17T06:40:39.341Z,1
2017-11-17T06:41:41.832Z,1
2017-11-17T06:42:44.321Z,1
2017-11-17T06:43:47.109Z,1
2017-11-17T06:44:50.177Z,1
2017-11-17T06:45:52.671Z,1
2017-11-17T06:46:55.495Z,1
2017-11-17T06:47:58.573Z,1
2017-11-17T06:49:01.066Z,1
2017-11-17T06:50:03.563Z,1
2017-11-17T06:51:06.362Z,1
2017-11-17T06:52:08.872Z,1
2017-11-17T06:53:11.362Z,1
2017-11-17T06:54:14.131Z,1
2017-11-17T06:55:16.632Z,1
2017-11-17T06:56:19.133Z,1
2017-11-17T06:57:21.615Z,1
2017-11-17T06:58:24.103Z,1
2017-11-17T06:59:26.616Z,1
2017-11-17T07:00:29.101Z,1
2017-11-17T07:01:31.899Z,1
2017-11-17T07:02:34.399Z,1
2017-11-17T07:03:36.890Z,1
2017-11-17T07:04:39.390Z,1
2017-11-17T07:05:41.891Z,1
2017-11-17T07:06:44.373Z,1
2017-11-17T07:07:46.862Z,1
2017-11-17T07:08:49.662Z,1
2017-11-17T07:09:52.145Z,1
2017-11-17T07:10:54.938Z,1
2017-11-17T07:11:57.432Z,1
2017-11-17T07:12:59.922Z,1
2017-11-17T07:14:02.725Z,1
2017-11-17T07:15:05.221Z,1
2017-11-17T07:16:08.008Z,1
2017-11-17T07:17:11.110Z,1
2017-11-17T07:18:13.605Z,1
2017-11-17T07:19:16.096Z,1
2017-11-17T07:20:18.600Z,1
2017-11-17T07:21:21.099Z,1
2017-11-17T07:22:23.593Z,1
2017-11-17T07:23:26.089Z,1
2017-11-17T07:24:28.586Z,1
2017-11-17T07:25:31.075Z,1
2017-11-17T07:26:33.569Z,1
2017-11-17T07:27:36.068Z,1
2017-11-17T07:28:38.568Z,1
2017-11-17T07:29:41.065Z,1
2017-11-17T07:30:43.555Z,1
2017-11-17T07:31:46.064Z,1
2017-11-17T07:32:48.541Z,1
2017-11-17T07:33:51.053Z,1
2017-11-17T07:34:53.839Z,1
2017-11-17T07:35:56.333Z,1
2017-11-17T07:36:59.139Z,1
2017-11-17T07:38:01.637Z,1
2017-11-17T07:39:04.127Z,1
2017-11-17T07:40:06.635Z,1
2017-11-17T07:41:09.119Z,1
2017-11-17T07:42:11.919Z,1
2017-11-17T07:43:14.415Z,1
2017-11-17T07:44:16.902Z,1
2017-11-17T07:45:19.403Z,1
2017-11-17T07:46:21.904Z,1.1
2017-11-17T07:47:24.686Z,1
2017-11-17T07:48:27.481Z,1.1
2017-11-17T07:49:29.970Z,1.1
2017-11-17T07:50:32.758Z,1.1
2017-11-17T07:51:35.275Z,1.1
2017-11-17T07:52:37.756Z,1.1
2017-11-17T07:53:40.260Z,1.1
2017-11-17T07:54:42.744Z,1.1
2017-11-17T07:55:45.250Z,1.1
2017-11-17T07:56:48.336Z,1.1
2017-11-17T07:57:50.826Z,1.1
2017-11-17T07:58:53.339Z,1.1
2017-11-17T07:59:56.129Z,1.1
2017-11-17T08:00:58.609Z,1.1
2017-11-17T08:02:01.102Z,1.1
2017-11-17T08:03:03.905Z,1.1
2017-11-17T08:04:06.697Z,1.1
2017-11-17T08:05:09.199Z,1.1
2017-11-17T08:06:11.979Z,1.1
2017-11-17T08:07:14.475Z,1.1
2017-11-17T08:08:16.987Z,1.1
2017-11-17T08:09:19.489Z,1.1
2017-11-17T08:10:22.278Z,1.1
2017-11-17T08:11:24.777Z,1.1
2017-11-17T08:12:27.261Z,1.1
2017-11-17T08:13:29.770Z,1.1
2017-11-17T08:14:32.267Z,1.1
2017-11-17T08:15:34.757Z,1.1
2017-11-17T08:16:37.566Z,1.1
2017-11-17T08:17:40.396Z,1.1
2017-11-17T08:18:42.889Z,1.2
2017-11-17T08:19:45.390Z,1.2
2017-11-17T08:20:48.171Z,1.2
2017-11-17T08:21:50.661Z,1.2
2017-11-17T08:22:53.178Z,1.1
2017-11-17T08:23:55.685Z,1.2
2017-11-17T08:24:58.511Z,1.2
2017-11-17T08:26:01.009Z,1.2
2017-11-17T08:27:03.520Z,1.2
2017-11-17T08:28:06.016Z,1.2
2017-11-17T08:29:08.517Z,1.2
2017-11-17T08:30:11.017Z,1.2
2017-11-17T08:31:13.521Z,1.3
2017-11-17T08:32:16.301Z,1.2
2017-11-17T08:33:18.816Z,1.2
2017-11-17T08:34:21.303Z,1.2
2017-11-17T08:35:23.810Z,1.2
2017-11-17T08:36:26.318Z,1.2
2017-11-17T08:37:28.816Z,1.2
2017-11-17T08:38:31.315Z,1.2
2017-11-17T08:39:33.827Z,1.2
2017-11-17T08:40:36.319Z,1.2
2017-11-17T08:41:38.829Z,1.2
2017-11-17T08:42:41.634Z,1.2
2017-11-17T08:43:44.140Z,1.2
2017-11-17T08:44:46.641Z,1.2
2017-11-17T08:45:49.147Z,1.2
2017-11-17T08:46:51.643Z,1.2
2017-11-17T08:47:54.710Z,1.2
2017-11-17T08:48:57.193Z,1.3
2017-11-17T08:49:59.703Z,1.2
2017-11-17T08:51:02.205Z,1.4
2017-11-17T08:52:05.083Z,1.3
2017-11-17T08:53:07.583Z,1.3
2017-11-17T08:54:10.083Z,1.3
2017-11-17T08:55:12.580Z,1.3
2017-11-17T08:56:15.511Z,1.3
2017-11-17T08:57:18.330Z,1.4
2017-11-17T08:58:20.836Z,1.4
2017-11-17T08:59:23.344Z,1.3
2017-11-17T09:00:26.138Z,1.4
2017-11-17T09:01:28.948Z,1.4
2017-11-17T09:02:31.464Z,1.4
2017-11-17T09:03:34.280Z,1.4
2017-11-17T09:04:37.086Z,1.3
2017-11-17T09:05:39.603Z,1.3
2017-11-17T09:06:42.097Z,1.3
2017-11-17T09:07:44.609Z,1.3
2017-11-17T09:08:47.102Z,1.4
2017-11-17T09:09:49.902Z,1.4
2017-11-17T09:10:52.403Z,1.4
2017-11-17T09:11:55.228Z,1.4
2017-11-17T09:12:57.739Z,1.4
2017-11-17T09:14:00.247Z,1.4
2017-11-17T09:15:02.748Z,1.5
2017-11-17T09:16:05.274Z,1.5
2017-11-17T09:17:07.786Z,1.4
2017-11-17T09:18:10.593Z,1.5
2017-11-17T09:19:13.085Z,1.6
2017-11-17T09:20:15.584Z,1.5
2017-11-17T09:21:18.078Z,1.4
2017-11-17T09:22:20.595Z,1.5
2017-11-17T09:23:23.101Z,1.6
2017-11-17T09:24:25.604Z,1.5
2017-11-17T09:25:28.109Z,1.6
2017-11-17T09:26:30.609Z,1.7
2017-11-17T09:27:33.118Z,1.7
2017-11-17T09:28:35.619Z,1.5
2017-11-17T09:29:38.141Z,1.7
2017-11-17T09:30:40.643Z,1.8
2017-11-17T09:31:43.449Z,1.5
2017-11-17T09:32:45.967Z,1.7
2017-11-17T09:33:48.468Z,1.7
2017-11-17T09:34:50.980Z,1.8
2017-11-17T09:35:53.785Z,1.6
2017-11-17T09:36:56.288Z,1.8
2017-11-17T09:37:58.790Z,1.6
2017-11-17T09:39:01.310Z,2
2017-11-17T09:40:03.812Z,1.8
2017-11-17T09:41:06.323Z,1.8
2017-11-17T09:42:09.132Z,1.6
2017-11-17T09:43:11.631Z,1.9
2017-11-17T09:44:14.148Z,1.7
2017-11-17T09:45:16.667Z,1.7
2017-11-17T09:46:19.159Z,1.9
2017-11-17T09:47:21.661Z,1.9
2017-11-17T09:48:24.168Z,1.8
2017-11-17T09:49:26.671Z,1.8
2017-11-17T09:50:29.177Z,1.8
2017-11-17T09:51:31.687Z,1.6
2017-11-17T09:52:34.188Z,1.9
2017-11-17T09:53:36.710Z,2
2017-11-17T09:54:39.503Z,1.8
2017-11-17T09:55:42.024Z,1.9
2017-11-17T09:56:44.536Z,2
2017-11-17T09:57:47.033Z,2
2017-11-17T09:58:49.547Z,2
2017-11-17T09:59:52.060Z,1.7
2017-11-17T10:00:54.593Z,2
2017-11-17T10:01:57.090Z,1.7
2017-11-17T10:02:59.592Z,1.9
2017-11-17T10:04:02.102Z,1.9
2017-11-17T10:05:05.259Z,1.8
2017-11-17T10:06:07.756Z,1.7
2017-11-17T10:07:10.272Z,1.9
2017-11-17T10:08:12.768Z,2.1
2017-11-17T10:09:15.593Z,1.9
2017-11-17T10:10:18.412Z,2.1
2017-11-17T10:11:20.921Z,2
2017-11-17T10:12:23.418Z,2.2
2017-11-17T10:13:26.228Z,2.1
2017-11-17T10:14:28.734Z,2.2
2017-11-17T10:15:31.540Z,2.2
2017-11-17T10:16:34.056Z,2.2
2017-11-17T10:17:36.876Z,2
2017-11-17T10:18:39.673Z,2.2
2017-11-17T10:19:42.195Z,2
2017-11-17T10:20:44.700Z,2.2
2017-11-17T10:21:47.213Z,2.2
2017-11-17T10:22:50.015Z,2.2
2017-11-17T10:23:52.836Z,2.2
2017-11-17T10:24:55.641Z,2.3
2017-11-17T10:25:58.158Z,2.2
2017-11-17T10:27:00.678Z,2.2
2017-11-17T10:28:03.193Z,2.3
2017-11-17T10:29:05.995Z,2.3
2017-11-17T10:30:08.520Z,2.1
2017-11-17T10:31:11.034Z,2.3
2017-11-17T10:32:13.541Z,2.3
2017-11-17T10:33:16.052Z,2.3
2017-11-17T10:34:18.567Z,1.9
2017-11-17T10:35:21.077Z,2.3
2017-11-17T10:36:23.598Z,2.4
2017-11-17T10:37:26.108Z,2.4
2017-11-17T10:38:28.617Z,2.4
2017-11-17T10:39:31.426Z,2.4
2017-11-17T10:40:33.942Z,2.4
2017-11-17T10:41:36.455Z,2.4
2017-11-17T10:42:38.965Z,2.4
2017-11-17T10:43:41.758Z,2.4
2017-11-17T10:44:44.280Z,2.4
2017-11-17T10:45:46.801Z,2.4
2017-11-17T10:46:49.310Z,2.4
2017-11-17T10:47:51.829Z,2.5
2017-11-17T10:48:54.645Z,2.4
2017-11-17T10:49:57.158Z,2.4
2017-11-17T10:50:59.683Z,2.3
2017-11-17T10:52:02.189Z,2.5
2017-11-17T10:53:04.709Z,2.5
2017-11-17T10:54:07.224Z,2.5
2017-11-17T10:55:09.731Z,2.5
2017-11-17T10:56:12.256Z,2.5
2017-11-17T10:57:14.768Z,2.3
2017-11-17T10:58:17.585Z,2.5
2017-11-17T10:59:20.095Z,2.3
2017-11-17T11:00:22.906Z,2.5
2017-11-17T11:01:25.429Z,2.5
2017-11-17T11:02:27.936Z,2.5
2017-11-17T11:03:30.755Z,2.5
2017-11-17T11:04:33.274Z,2.5
2017-11-17T11:05:35.776Z,2.5
2017-11-17T11:06:38.289Z,2.5
2017-11-17T11:07:40.801Z,2.6
2017-11-17T11:08:43.317Z,2.4
2017-11-17T11:09:45.835Z,2.5
2017-11-17T11:10:48.363Z,2.5
2017-11-17T11:11:50.854Z,2.5
2017-11-17T11:12:53.372Z,2.5
2017-11-17T11:13:55.884Z,2.5
2017-11-17T11:14:58.399Z,2.5
2017-11-17T11:16:00.919Z,2.5
2017-11-17T11:17:03.444Z,2.5
2017-11-17T11:18:05.945Z,2.5
2017-11-17T11:19:08.463Z,2.5
2017-11-17T11:20:10.973Z,2.5
2017-11-17T11:21:13.484Z,2.5
2017-11-17T11:22:16.105Z,2.5
2017-11-17T11:23:18.622Z,2.5
2017-11-17T11:24:21.454Z,2.3
2017-11-17T11:25:23.975Z,2.3
2017-11-17T11:26:26.493Z,2.3
2017-11-17T11:27:29.011Z,2.5
2017-11-17T11:28:31.515Z,2.5
2017-11-17T11:29:34.318Z,2.4
2017-11-17T11:30:36.843Z,2.5
2017-11-17T11:31:39.358Z,2.6
2017-11-17T11:32:41.864Z,2.5
2017-11-17T11:33:44.379Z,2.5
2017-11-17T11:34:46.891Z,2.5
2017-11-17T11:35:49.423Z,2.5
2017-11-17T11:36:51.938Z,2.5
2017-11-17T11:37:54.434Z,2.4
2017-11-17T11:38:56.957Z,2.6
2017-11-17T11:39:59.467Z,2.4
2017-11-17T11:41:01.980Z,2.6
2017-11-17T11:42:04.510Z,2.4
2017-11-17T11:43:07.005Z,2.6
2017-11-17T11:44:09.529Z,2.6
2017-11-17T11:45:12.350Z,2.5
2017-11-17T11:46:14.871Z,2.4
2017-11-17T11:47:17.390Z,2.6
2017-11-17T11:48:19.901Z,2.6
2017-11-17T11:49:22.422Z,2.6
2017-11-17T11:50:25.258Z,2.6
2017-11-17T11:51:27.770Z,2.6
2017-11-17T11:52:30.273Z,2.6
2017-11-17T11:53:32.795Z,2.6
2017-11-17T11:54:35.608Z,2.5
2017-11-17T11:55:38.417Z,2.7
2017-11-17T11:56:40.937Z,2.4
2017-11-17T11:57:43.437Z,2.7
2017-11-17T11:58:45.958Z,2.7
2017-11-17T11:59:48.468Z,2.4
2017-11-17T12:00:50.984Z,2.6
2017-11-17T12:01:53.817Z,2.4
2017-11-17T12:02:56.642Z,2.4
2017-11-17T12:03:59.440Z,2.2
2017-11-17T12:05:01.961Z,2.3
2017-11-17T12:06:04.471Z,2.2
2017-11-17T12:07:06.987Z,2.6
2017-11-17T12:08:09.507Z,2.3
2017-11-17T12:09:12.004Z,2.5
2017-11-17T12:10:14.820Z,2.4
2017-11-17T12:11:17.351Z,2.3
2017-11-17T12:12:19.859Z,2.5
2017-11-17T12:13:22.371Z,2.5
2017-11-17T12:14:24.883Z,2.5
2017-11-17T12:15:27.395Z,2.5
2017-11-17T12:16:29.916Z,2.4
2017-11-17T12:17:32.725Z,2.3
2017-11-17T12:18:35.522Z,2.6
2017-11-17T12:19:38.036Z,2.2
2017-11-17T12:20:40.557Z,2.5
2017-11-17T12:21:43.069Z,2.2
2017-11-17T12:22:45.588Z,2.5
2017-11-17T12:23:48.103Z,2.3
2017-11-17T12:24:50.620Z,2.5
2017-11-17T12:26:01.061Z,2.3
2017-11-17T12:27:09.114Z,2.2
2017-11-17T12:28:12.025Z,2.4
2017-11-17T12:29:14.538Z,2.3
2017-11-17T12:30:17.053Z,2.4
2017-11-17T12:31:19.558Z,2.4
2017-11-17T12:32:22.066Z,2.4
2017-11-17T12:33:24.602Z,2.5
2017-11-17T12:34:27.109Z,2.3
2017-11-17T12:35:29.620Z,2.4
2017-11-17T12:36:32.446Z,2.4
2017-11-17T12:37:34.952Z,2.4
2017-11-17T12:38:37.760Z,2.4
2017-11-17T12:39:40.571Z,2.4
2017-11-17T12:40:43.090Z,2.4
2017-11-17T12:41:45.709Z,2.4
2017-11-17T12:42:48.901Z,2.4
2017-11-17T12:43:52.175Z,2.3
2017-11-17T12:44:54.697Z,2.2
2017-11-17T12:45:57.556Z,2.4
2017-11-17T12:47:00.117Z,2.3
2017-11-17T12:48:02.995Z,2.4
2017-11-17T12:49:05.509Z,2.1
2017-11-17T12:50:08.022Z,2.3
2017-11-17T12:51:10.638Z,2
2017-11-17T12:52:13.157Z,2.1
2017-11-17T12:53:15.667Z,2.2
2017-11-17T12:54:18.216Z,2.2
2017-11-17T12:55:20.884Z,2.3
2017-11-17T12:56:23.401Z,2.2
2017-11-17T12:57:25.904Z,2.1
2017-11-17T12:58:28.418Z,2.2
2017-11-17T12:59:30.975Z,1.8
2017-11-17T13:00:33.825Z,1.9
2017-11-17T13:01:36.966Z,2.2
2017-11-17T13:02:39.476Z,2
2017-11-17T13:03:41.992Z,2.2
2017-11-17T13:04:44.519Z,2.2
2017-11-17T13:05:47.953Z,2
2017-11-17T13:06:50.445Z,2.1
2017-11-17T13:07:53.278Z,2.2
2017-11-17T13:08:55.854Z,2
2017-11-17T13:09:58.383Z,2.1
2017-11-17T13:11:00.894Z,2.1
2017-11-17T13:12:03.726Z,2
2017-11-17T13:13:06.230Z,2.1
2017-11-17T13:14:09.034Z,2.1
2017-11-17T13:15:11.540Z,2.1
2017-11-17T13:16:14.376Z,2.1
2017-11-17T13:17:17.322Z,1.9
2017-11-17T13:18:19.833Z,1.7
2017-11-17T13:19:22.385Z,2.1
2017-11-17T13:20:24.948Z,2
2017-11-17T13:21:27.504Z,1.9
2017-11-17T13:22:30.018Z,1.7
2017-11-17T13:23:32.527Z,1.8
2017-11-17T13:24:42.631Z,2
2017-11-17T13:25:55.908Z,2
2017-11-17T13:27:07.713Z,1.6
2017-11-17T13:28:20.452Z,1.8
2017-11-17T13:29:32.117Z,1.7
2017-11-17T13:30:43.226Z,1.9
2017-11-17T13:31:46.054Z,1.9
2017-11-17T13:32:52.638Z,1.6
2017-11-17T13:34:08.535Z,1.7
2017-11-17T13:35:21.656Z,1.6
2017-11-17T13:36:33.836Z,1.5
2017-11-17T13:37:49.934Z,1.5
2017-11-17T13:39:02.752Z,1.6
2017-11-17T13:40:12.130Z,1.5
2017-11-17T13:41:23.333Z,1.5
2017-11-17T13:42:25.848Z,1.6
2017-11-17T13:43:28.353Z,1.6
2017-11-17T13:44:31.549Z,1.5
2017-11-17T13:45:34.378Z,1.5
2017-11-17T13:46:36.877Z,1.5
2017-11-17T13:47:39.434Z,1.5
2017-11-17T13:48:41.939Z,1.5
2017-11-17T13:49:44.443Z,1.5
2017-11-17T13:50:46.949Z,1.4
2017-11-17T13:51:49.445Z,1.4
2017-11-17T13:52:53.279Z,1.4
2017-11-17T13:53:55.817Z,1.4
2017-11-17T13:54:58.965Z,1.4
2017-11-17T13:56:02.089Z,1.4
2017-11-17T13:57:04.989Z,1.4
2017-11-17T13:58:07.628Z,1.4
2017-11-17T13:59:10.435Z,1.4
2017-11-17T14:00:12.941Z,1.4
2017-11-17T14:01:15.445Z,1.4
2017-11-17T14:02:17.951Z,1.4
2017-11-17T14:03:20.454Z,1.3
2017-11-17T14:04:22.961Z,1.4
2017-11-17T14:05:25.467Z,1.3
2017-11-17T14:06:27.973Z,1.4
2017-11-17T14:07:30.469Z,1.3
2017-11-17T14:08:32.974Z,1.3
2017-11-17T14:09:35.460Z,1.3
2017-11-17T14:10:38.286Z,1.4
2017-11-17T14:11:41.091Z,1.5
2017-11-17T14:12:43.589Z,1.3
2017-11-17T14:13:46.098Z,1.4
2017-11-17T14:14:48.604Z,1.3
2017-11-17T14:15:51.121Z,1.3
2017-11-17T14:16:53.626Z,1.3
2017-11-17T14:17:56.112Z,1.3
2017-11-17T14:18:58.621Z,1.3
2017-11-17T14:20:01.428Z,1.3
2017-11-17T14:21:04.242Z,1.3
2017-11-17T14:22:06.749Z,1.3
2017-11-17T14:23:09.249Z,1.3
2017-11-17T14:24:11.760Z,1.3
2017-11-17T14:25:14.249Z,1.3
2017-11-17T14:26:16.756Z,1.3
2017-11-17T14:27:19.268Z,1.3
2017-11-17T14:28:22.072Z,1.2
2017-11-17T14:29:24.582Z,1.3
2017-11-17T14:30:27.082Z,1.3
2017-11-17T14:31:29.585Z,1.3
2017-11-17T14:32:32.111Z,1.2
2017-11-17T14:33:34.928Z,1.3